sensor_id;sensor_type;location;lat;lon;timestamp;temperature;humidity
45066;DHT22;30830;53.704;10.004;2024-01-30T00:01:41;2.80;99.90
45066;DHT22;30830;53.704;10.004;2024-01-30T00:04:06;2.80;99.90
45066;DHT22;30830;53.704;10.004;2024-01-30T00:06:32;2.80;99.90
45066;DHT22;30830;53.704;10.004;2024-01-30T00:08:58;2.80;99.90
45066;DHT22;30830;53.704;10.004;2024-01-30T00:11:23;2.70;99.90
45066;DHT22;30830;53.704;10.004;2024-01-30T00:13:51;2.70;99.90
45066;DHT22;30830;53.704;10.004;2024-01-30T00:16:24;2.70;99.90
45066;DHT22;30830;53.704;10.004;2024-01-30T00:18:53;2.70;99.90
45066;DHT22;30830;53.704;10.004;2024-01-30T00:21:19;2.70;99.90
45066;DHT22;30830;53.704;10.004;2024-01-30T00:23:45;2.60;99.90
45066;DHT22;30830;53.704;10.004;2024-01-30T00:26:11;2.60;99.90
45066;DHT22;30830;53.704;10.004;2024-01-30T00:28:42;2.60;99.90
45066;DHT22;30830;53.704;10.004;2024-01-30T00:31:08;2.60;99.90
45066;DHT22;30830;53.704;10.004;2024-01-30T00:33:41;2.60;99.90
45066;DHT22;30830;53.704;10.004;2024-01-30T00:36:08;2.60;99.90
45066;DHT22;30830;53.704;10.004;2024-01-30T00:38:34;2.60;99.90
45066;DHT22;30830;53.704;10.004;2024-01-30T00:41:00;2.60;99.90
45066;DHT22;30830;53.704;10.004;2024-01-30T00:43:27;2.60;99.90
45066;DHT22;30830;53.704;10.004;2024-01-30T00:45:53;2.60;99.90
45066;DHT22;30830;53.704;10.004;2024-01-30T00:48:19;2.60;99.90
45066;DHT22;30830;53.704;10.004;2024-01-30T00:50:44;2.60;99.90
45066;DHT22;30830;53.704;10.004;2024-01-30T00:53:10;2.50;99.90
45066;DHT22;30830;53.704;10.004;2024-01-30T00:55:36;2.50;99.90
45066;DHT22;30830;53.704;10.004;2024-01-30T00:58:02;2.50;99.90
45066;DHT22;30830;53.704;10.004;2024-01-30T01:00:28;2.50;99.90
45066;DHT22;30830;53.704;10.004;2024-01-30T01:02:57;2.50;99.90
45066;DHT22;30830;53.704;10.004;2024-01-30T01:05:23;2.50;99.90
45066;DHT22;30830;53.704;10.004;2024-01-30T01:07:49;2.50;99.90
45066;DHT22;30830;53.704;10.004;2024-01-30T01:10:15;2.50;99.90
45066;DHT22;30830;53.704;10.004;2024-01-30T01:12:41;2.40;99.90
45066;DHT22;30830;53.704;10.004;2024-01-30T01:15:07;2.40;99.90
45066;DHT22;30830;53.704;10.004;2024-01-30T01:17:35;2.40;99.90
45066;DHT22;30830;53.704;10.004;2024-01-30T01:20:01;2.40;99.90
45066;DHT22;30830;53.704;10.004;2024-01-30T01:22:27;2.40;99.90
45066;DHT22;30830;53.704;10.004;2024-01-30T01:24:53;2.30;99.90
45066;DHT22;30830;53.704;10.004;2024-01-30T01:27:18;2.40;99.90
45066;DHT22;30830;53.704;10.004;2024-01-30T01:29:44;2.40;99.90
45066;DHT22;30830;53.704;10.004;2024-01-30T01:32:10;2.40;99.90
45066;DHT22;30830;53.704;10.004;2024-01-30T01:34:36;2.30;99.90
45066;DHT22;30830;53.704;10.004;2024-01-30T01:37:01;2.30;99.90
45066;DHT22;30830;53.704;10.004;2024-01-30T01:39:27;2.30;99.90
45066;DHT22;30830;53.704;10.004;2024-01-30T01:41:53;2.30;99.90
45066;DHT22;30830;53.704;10.004;2024-01-30T01:44:18;2.30;99.90
45066;DHT22;30830;53.704;10.004;2024-01-30T01:46:44;2.40;99.90
45066;DHT22;30830;53.704;10.004;2024-01-30T01:49:10;2.30;99.90
45066;DHT22;30830;53.704;10.004;2024-01-30T01:51:36;2.30;99.90
45066;DHT22;30830;53.704;10.004;2024-01-30T01:54:06;2.40;99.90
45066;DHT22;30830;53.704;10.004;2024-01-30T01:56:33;2.40;99.90
45066;DHT22;30830;53.704;10.004;2024-01-30T01:59:06;2.40;99.90
45066;DHT22;30830;53.704;10.004;2024-01-30T02:01:38;2.40;99.90
45066;DHT22;30830;53.704;10.004;2024-01-30T02:04:07;2.40;99.90
45066;DHT22;30830;53.704;10.004;2024-01-30T02:06:36;2.40;99.90
45066;DHT22;30830;53.704;10.004;2024-01-30T02:09:02;2.40;99.90
45066;DHT22;30830;53.704;10.004;2024-01-30T02:11:29;2.50;99.90
45066;DHT22;30830;53.704;10.004;2024-01-30T02:13:55;2.50;99.90
45066;DHT22;30830;53.704;10.004;2024-01-30T02:16:21;2.50;99.90
45066;DHT22;30830;53.704;10.004;2024-01-30T02:18:47;2.50;99.90
45066;DHT22;30830;53.704;10.004;2024-01-30T02:21:17;2.50;99.90
45066;DHT22;30830;53.704;10.004;2024-01-30T02:23:44;2.50;99.90
45066;DHT22;30830;53.704;10.004;2024-01-30T02:26:12;2.50;99.90
45066;DHT22;30830;53.704;10.004;2024-01-30T02:28:38;2.50;99.90
45066;DHT22;30830;53.704;10.004;2024-01-30T02:31:04;2.50;99.90
45066;DHT22;30830;53.704;10.004;2024-01-30T02:33:29;2.50;99.90
45066;DHT22;30830;53.704;10.004;2024-01-30T02:35:55;2.50;99.90
45066;DHT22;30830;53.704;10.004;2024-01-30T02:38:21;2.40;99.90
45066;DHT22;30830;53.704;10.004;2024-01-30T02:40:46;2.40;99.90
45066;DHT22;30830;53.704;10.004;2024-01-30T02:43:12;2.40;99.90
45066;DHT22;30830;53.704;10.004;2024-01-30T02:45:37;2.40;99.90
45066;DHT22;30830;53.704;10.004;2024-01-30T02:48:03;2.40;99.90
45066;DHT22;30830;53.704;10.004;2024-01-30T02:50:29;2.40;99.90
45066;DHT22;30830;53.704;10.004;2024-01-30T02:52:54;2.40;99.90
45066;DHT22;30830;53.704;10.004;2024-01-30T02:55:20;2.30;99.90
45066;DHT22;30830;53.704;10.004;2024-01-30T02:57:45;2.30;99.90
45066;DHT22;30830;53.704;10.004;2024-01-30T03:00:11;2.30;99.90
45066;DHT22;30830;53.704;10.004;2024-01-30T03:02:37;2.30;99.90
45066;DHT22;30830;53.704;10.004;2024-01-30T03:05:04;2.30;99.90
45066;DHT22;30830;53.704;10.004;2024-01-30T03:07:30;2.20;99.90
45066;DHT22;30830;53.704;10.004;2024-01-30T03:09:55;2.20;99.90
45066;DHT22;30830;53.704;10.004;2024-01-30T03:12:21;2.20;99.90
45066;DHT22;30830;53.704;10.004;2024-01-30T03:14:47;2.20;99.90
45066;DHT22;30830;53.704;10.004;2024-01-30T03:17:13;2.20;99.90
45066;DHT22;30830;53.704;10.004;2024-01-30T03:19:39;2.10;99.90
45066;DHT22;30830;53.704;10.004;2024-01-30T03:22:04;2.10;99.90
45066;DHT22;30830;53.704;10.004;2024-01-30T03:24:30;2.10;99.90
45066;DHT22;30830;53.704;10.004;2024-01-30T03:26:56;2.10;99.90
45066;DHT22;30830;53.704;10.004;2024-01-30T03:29:21;2.10;99.90
45066;DHT22;30830;53.704;10.004;2024-01-30T03:31:47;2.10;99.90
45066;DHT22;30830;53.704;10.004;2024-01-30T03:34:12;2.10;99.90
45066;DHT22;30830;53.704;10.004;2024-01-30T03:36:38;2.10;99.90
45066;DHT22;30830;53.704;10.004;2024-01-30T03:39:04;2.10;99.90
45066;DHT22;30830;53.704;10.004;2024-01-30T03:41:29;2.10;99.90
45066;DHT22;30830;53.704;10.004;2024-01-30T03:43:55;2.10;99.90
45066;DHT22;30830;53.704;10.004;2024-01-30T03:46:21;2.00;99.90
45066;DHT22;30830;53.704;10.004;2024-01-30T03:48:46;2.00;99.90
45066;DHT22;30830;53.704;10.004;2024-01-30T03:51:12;2.00;99.90
45066;DHT22;30830;53.704;10.004;2024-01-30T03:53:40;2.00;99.90
45066;DHT22;30830;53.704;10.004;2024-01-30T03:56:07;2.00;99.90
45066;DHT22;30830;53.704;10.004;2024-01-30T03:58:33;2.00;99.90
45066;DHT22;30830;53.704;10.004;2024-01-30T04:00:58;2.00;99.90
45066;DHT22;30830;53.704;10.004;2024-01-30T04:03:24;1.90;99.90
45066;DHT22;30830;53.704;10.004;2024-01-30T04:05:52;1.90;99.90
45066;DHT22;30830;53.704;10.004;2024-01-30T04:08:17;1.90;99.90
45066;DHT22;30830;53.704;10.004;2024-01-30T04:10:43;1.90;99.90
45066;DHT22;30830;53.704;10.004;2024-01-30T04:13:09;1.90;99.90
45066;DHT22;30830;53.704;10.004;2024-01-30T04:15:34;1.90;99.90
45066;DHT22;30830;53.704;10.004;2024-01-30T04:18:00;1.90;99.90
45066;DHT22;30830;53.704;10.004;2024-01-30T04:20:26;1.90;99.90
45066;DHT22;30830;53.704;10.004;2024-01-30T04:22:51;1.90;99.90
45066;DHT22;30830;53.704;10.004;2024-01-30T04:25:17;1.90;99.90
45066;DHT22;30830;53.704;10.004;2024-01-30T04:27:42;1.80;99.90
45066;DHT22;30830;53.704;10.004;2024-01-30T04:30:08;1.80;99.90
45066;DHT22;30830;53.704;10.004;2024-01-30T04:32:35;1.80;99.90
45066;DHT22;30830;53.704;10.004;2024-01-30T04:35:00;1.80;99.90
45066;DHT22;30830;53.704;10.004;2024-01-30T04:37:26;1.80;99.90
45066;DHT22;30830;53.704;10.004;2024-01-30T04:39:51;1.80;99.90
45066;DHT22;30830;53.704;10.004;2024-01-30T04:42:17;1.70;99.90
45066;DHT22;30830;53.704;10.004;2024-01-30T04:44:43;1.70;99.90
45066;DHT22;30830;53.704;10.004;2024-01-30T04:47:09;1.70;99.90
45066;DHT22;30830;53.704;10.004;2024-01-30T04:49:36;1.70;99.90
45066;DHT22;30830;53.704;10.004;2024-01-30T04:52:02;1.70;99.90
45066;DHT22;30830;53.704;10.004;2024-01-30T04:54:28;1.60;99.90
45066;DHT22;30830;53.704;10.004;2024-01-30T04:56:53;1.60;99.90
45066;DHT22;30830;53.704;10.004;2024-01-30T04:59:19;1.60;99.90
45066;DHT22;30830;53.704;10.004;2024-01-30T05:01:45;1.60;99.90
45066;DHT22;30830;53.704;10.004;2024-01-30T05:04:10;1.60;99.90
45066;DHT22;30830;53.704;10.004;2024-01-30T05:06:36;1.60;99.90
45066;DHT22;30830;53.704;10.004;2024-01-30T05:09:02;1.60;99.90
45066;DHT22;30830;53.704;10.004;2024-01-30T05:11:30;1.60;99.90
45066;DHT22;30830;53.704;10.004;2024-01-30T05:13:55;1.60;99.90
45066;DHT22;30830;53.704;10.004;2024-01-30T05:16:21;1.60;99.90
45066;DHT22;30830;53.704;10.004;2024-01-30T05:18:46;1.60;99.90
45066;DHT22;30830;53.704;10.004;2024-01-30T05:21:12;1.60;99.90
45066;DHT22;30830;53.704;10.004;2024-01-30T05:23:37;1.60;99.90
45066;DHT22;30830;53.704;10.004;2024-01-30T05:26:03;1.60;99.90
45066;DHT22;30830;53.704;10.004;2024-01-30T05:28:29;1.70;99.90
45066;DHT22;30830;53.704;10.004;2024-01-30T05:30:56;1.70;99.90
45066;DHT22;30830;53.704;10.004;2024-01-30T05:33:21;1.70;99.90
45066;DHT22;30830;53.704;10.004;2024-01-30T05:35:47;1.80;99.90
45066;DHT22;30830;53.704;10.004;2024-01-30T05:38:15;1.80;99.90
45066;DHT22;30830;53.704;10.004;2024-01-30T05:40:40;1.80;99.90
45066;DHT22;30830;53.704;10.004;2024-01-30T05:43:06;1.90;99.90
45066;DHT22;30830;53.704;10.004;2024-01-30T05:45:33;1.90;99.90
45066;DHT22;30830;53.704;10.004;2024-01-30T05:47:59;1.90;99.90
45066;DHT22;30830;53.704;10.004;2024-01-30T05:50:25;1.90;99.90
45066;DHT22;30830;53.704;10.004;2024-01-30T05:52:51;2.00;99.90
45066;DHT22;30830;53.704;10.004;2024-01-30T05:55:17;2.00;99.90
45066;DHT22;30830;53.704;10.004;2024-01-30T05:57:42;2.00;99.90
45066;DHT22;30830;53.704;10.004;2024-01-30T06:00:08;2.10;99.90
45066;DHT22;30830;53.704;10.004;2024-01-30T06:02:34;2.10;99.90
45066;DHT22;30830;53.704;10.004;2024-01-30T06:04:59;2.10;99.90
45066;DHT22;30830;53.704;10.004;2024-01-30T06:07:25;2.20;99.90
45066;DHT22;30830;53.704;10.004;2024-01-30T06:09:50;2.20;99.90
45066;DHT22;30830;53.704;10.004;2024-01-30T06:12:16;2.20;99.90
45066;DHT22;30830;53.704;10.004;2024-01-30T06:14:42;2.20;99.90
45066;DHT22;30830;53.704;10.004;2024-01-30T06:17:08;2.20;99.90
45066;DHT22;30830;53.704;10.004;2024-01-30T06:19:34;2.20;99.90
45066;DHT22;30830;53.704;10.004;2024-01-30T06:22:00;2.20;99.90
45066;DHT22;30830;53.704;10.004;2024-01-30T06:24:25;2.20;99.90
45066;DHT22;30830;53.704;10.004;2024-01-30T06:26:51;2.20;99.90
45066;DHT22;30830;53.704;10.004;2024-01-30T06:29:16;2.20;99.90
45066;DHT22;30830;53.704;10.004;2024-01-30T06:31:42;2.20;99.90
45066;DHT22;30830;53.704;10.004;2024-01-30T06:34:11;2.20;99.90
45066;DHT22;30830;53.704;10.004;2024-01-30T06:36:37;2.30;99.90
45066;DHT22;30830;53.704;10.004;2024-01-30T06:39:03;2.30;99.90
45066;DHT22;30830;53.704;10.004;2024-01-30T06:41:29;2.30;99.90
45066;DHT22;30830;53.704;10.004;2024-01-30T06:43:55;2.30;99.90
45066;DHT22;30830;53.704;10.004;2024-01-30T06:46:21;2.40;99.90
45066;DHT22;30830;53.704;10.004;2024-01-30T06:48:46;2.40;99.90
45066;DHT22;30830;53.704;10.004;2024-01-30T06:51:12;2.40;99.90
45066;DHT22;30830;53.704;10.004;2024-01-30T06:53:38;2.40;99.90
45066;DHT22;30830;53.704;10.004;2024-01-30T06:56:04;2.50;99.90
45066;DHT22;30830;53.704;10.004;2024-01-30T06:58:29;2.50;99.90
45066;DHT22;30830;53.704;10.004;2024-01-30T07:00:56;2.50;99.90
45066;DHT22;30830;53.704;10.004;2024-01-30T07:03:21;2.50;99.90
45066;DHT22;30830;53.704;10.004;2024-01-30T07:05:47;2.50;99.90
45066;DHT22;30830;53.704;10.004;2024-01-30T07:08:12;2.50;99.90
45066;DHT22;30830;53.704;10.004;2024-01-30T07:10:38;2.50;99.90
45066;DHT22;30830;53.704;10.004;2024-01-30T07:13:04;2.50;99.90
45066;DHT22;30830;53.704;10.004;2024-01-30T07:15:31;2.50;99.90
45066;DHT22;30830;53.704;10.004;2024-01-30T07:17:56;2.50;99.90
45066;DHT22;30830;53.704;10.004;2024-01-30T07:20:22;2.50;99.90
45066;DHT22;30830;53.704;10.004;2024-01-30T07:22:48;2.50;99.90
45066;DHT22;30830;53.704;10.004;2024-01-30T07:25:13;2.60;99.90
45066;DHT22;30830;53.704;10.004;2024-01-30T07:27:39;2.60;99.90
45066;DHT22;30830;53.704;10.004;2024-01-30T07:30:05;2.60;99.90
45066;DHT22;30830;53.704;10.004;2024-01-30T07:32:31;2.60;99.90
45066;DHT22;30830;53.704;10.004;2024-01-30T07:34:57;2.60;99.90
45066;DHT22;30830;53.704;10.004;2024-01-30T07:37:23;2.60;99.90
45066;DHT22;30830;53.704;10.004;2024-01-30T07:39:48;2.70;99.90
45066;DHT22;30830;53.704;10.004;2024-01-30T07:42:14;2.70;99.90
45066;DHT22;30830;53.704;10.004;2024-01-30T07:44:39;2.70;99.90
45066;DHT22;30830;53.704;10.004;2024-01-30T07:47:05;2.70;99.90
45066;DHT22;30830;53.704;10.004;2024-01-30T07:49:32;2.70;99.90
45066;DHT22;30830;53.704;10.004;2024-01-30T07:51:58;2.70;99.90
45066;DHT22;30830;53.704;10.004;2024-01-30T07:54:23;2.80;99.90
45066;DHT22;30830;53.704;10.004;2024-01-30T07:56:49;2.80;99.90
45066;DHT22;30830;53.704;10.004;2024-01-30T07:59:15;2.80;99.90
45066;DHT22;30830;53.704;10.004;2024-01-30T08:01:40;2.80;99.90
45066;DHT22;30830;53.704;10.004;2024-01-30T08:04:06;2.90;99.90
45066;DHT22;30830;53.704;10.004;2024-01-30T08:06:33;2.90;99.90
45066;DHT22;30830;53.704;10.004;2024-01-30T08:08:58;2.90;99.90
45066;DHT22;30830;53.704;10.004;2024-01-30T08:11:24;3.00;99.90
45066;DHT22;30830;53.704;10.004;2024-01-30T08:13:54;3.00;99.90
45066;DHT22;30830;53.704;10.004;2024-01-30T08:16:20;3.10;99.90
45066;DHT22;30830;53.704;10.004;2024-01-30T08:18:46;3.10;99.90
45066;DHT22;30830;53.704;10.004;2024-01-30T08:21:11;3.20;99.90
45066;DHT22;30830;53.704;10.004;2024-01-30T08:23:39;3.20;99.90
45066;DHT22;30830;53.704;10.004;2024-01-30T08:26:05;3.30;99.90
45066;DHT22;30830;53.704;10.004;2024-01-30T08:28:31;3.30;99.90
45066;DHT22;30830;53.704;10.004;2024-01-30T08:30:56;3.40;99.90
45066;DHT22;30830;53.704;10.004;2024-01-30T08:33:22;3.40;99.90
45066;DHT22;30830;53.704;10.004;2024-01-30T08:35:48;3.50;99.90
45066;DHT22;30830;53.704;10.004;2024-01-30T08:38:14;3.50;99.90
45066;DHT22;30830;53.704;10.004;2024-01-30T08:40:39;3.60;99.90
45066;DHT22;30830;53.704;10.004;2024-01-30T08:43:05;3.60;99.90
45066;DHT22;30830;53.704;10.004;2024-01-30T08:45:30;3.70;99.90
45066;DHT22;30830;53.704;10.004;2024-01-30T08:47:56;3.80;99.90
45066;DHT22;30830;53.704;10.004;2024-01-30T08:50:22;3.80;99.90
45066;DHT22;30830;53.704;10.004;2024-01-30T08:52:47;3.90;99.90
45066;DHT22;30830;53.704;10.004;2024-01-30T08:55:13;3.90;99.90
45066;DHT22;30830;53.704;10.004;2024-01-30T08:57:39;4.00;99.90
45066;DHT22;30830;53.704;10.004;2024-01-30T09:00:05;4.10;99.90
45066;DHT22;30830;53.704;10.004;2024-01-30T09:02:33;4.20;99.90
45066;DHT22;30830;53.704;10.004;2024-01-30T09:04:59;4.20;99.90
45066;DHT22;30830;53.704;10.004;2024-01-30T09:07:24;4.30;99.90
45066;DHT22;30830;53.704;10.004;2024-01-30T09:09:50;4.40;99.90
45066;DHT22;30830;53.704;10.004;2024-01-30T09:12:15;4.40;99.90
45066;DHT22;30830;53.704;10.004;2024-01-30T09:14:41;4.40;99.90
45066;DHT22;30830;53.704;10.004;2024-01-30T09:17:07;4.50;99.90
45066;DHT22;30830;53.704;10.004;2024-01-30T09:19:33;4.50;99.90
45066;DHT22;30830;53.704;10.004;2024-01-30T09:21:59;4.50;99.90
45066;DHT22;30830;53.704;10.004;2024-01-30T09:24:26;4.60;99.90
45066;DHT22;30830;53.704;10.004;2024-01-30T09:26:52;4.70;99.90
45066;DHT22;30830;53.704;10.004;2024-01-30T09:29:17;4.70;99.90
45066;DHT22;30830;53.704;10.004;2024-01-30T09:31:46;4.80;99.90
45066;DHT22;30830;53.704;10.004;2024-01-30T09:34:12;4.80;99.90
45066;DHT22;30830;53.704;10.004;2024-01-30T09:36:38;4.90;99.90
45066;DHT22;30830;53.704;10.004;2024-01-30T09:39:03;4.90;99.90
45066;DHT22;30830;53.704;10.004;2024-01-30T09:41:32;5.00;99.90
45066;DHT22;30830;53.704;10.004;2024-01-30T09:43:59;5.10;99.90
45066;DHT22;30830;53.704;10.004;2024-01-30T09:46:28;5.20;99.90
45066;DHT22;30830;53.704;10.004;2024-01-30T09:48:57;5.20;99.90
45066;DHT22;30830;53.704;10.004;2024-01-30T09:51:24;5.30;99.90
45066;DHT22;30830;53.704;10.004;2024-01-30T09:53:51;5.30;99.90
45066;DHT22;30830;53.704;10.004;2024-01-30T09:56:17;5.40;99.90
45066;DHT22;30830;53.704;10.004;2024-01-30T09:58:43;5.50;99.90
45066;DHT22;30830;53.704;10.004;2024-01-30T10:01:08;5.50;99.90
45066;DHT22;30830;53.704;10.004;2024-01-30T10:03:34;5.60;99.90
45066;DHT22;30830;53.704;10.004;2024-01-30T10:06:01;5.70;99.90
45066;DHT22;30830;53.704;10.004;2024-01-30T10:08:27;5.70;99.90
45066;DHT22;30830;53.704;10.004;2024-01-30T10:10:52;5.80;99.90
45066;DHT22;30830;53.704;10.004;2024-01-30T10:13:18;5.80;99.90
45066;DHT22;30830;53.704;10.004;2024-01-30T10:15:44;5.90;99.90
45066;DHT22;30830;53.704;10.004;2024-01-30T10:18:10;6.00;99.90
45066;DHT22;30830;53.704;10.004;2024-01-30T10:20:36;6.00;99.90
45066;DHT22;30830;53.704;10.004;2024-01-30T10:23:02;6.10;99.90
45066;DHT22;30830;53.704;10.004;2024-01-30T10:25:29;6.20;99.90
45066;DHT22;30830;53.704;10.004;2024-01-30T10:27:56;6.20;99.90
45066;DHT22;30830;53.704;10.004;2024-01-30T10:30:22;6.30;99.90
45066;DHT22;30830;53.704;10.004;2024-01-30T10:32:48;6.40;99.90
45066;DHT22;30830;53.704;10.004;2024-01-30T10:35:14;6.50;99.90
45066;DHT22;30830;53.704;10.004;2024-01-30T10:37:40;6.50;99.90
45066;DHT22;30830;53.704;10.004;2024-01-30T10:40:06;6.60;99.90
45066;DHT22;30830;53.704;10.004;2024-01-30T10:42:36;6.70;99.90
45066;DHT22;30830;53.704;10.004;2024-01-30T10:45:13;6.70;99.90
45066;DHT22;30830;53.704;10.004;2024-01-30T10:47:41;6.90;99.90
45066;DHT22;30830;53.704;10.004;2024-01-30T10:50:09;6.90;99.90
45066;DHT22;30830;53.704;10.004;2024-01-30T10:52:36;6.90;99.90
45066;DHT22;30830;53.704;10.004;2024-01-30T10:55:04;7.00;99.90
45066;DHT22;30830;53.704;10.004;2024-01-30T10:57:34;7.10;99.90
45066;DHT22;30830;53.704;10.004;2024-01-30T11:00:04;7.10;99.90
45066;DHT22;30830;53.704;10.004;2024-01-30T11:02:31;7.20;99.90
45066;DHT22;30830;53.704;10.004;2024-01-30T11:04:58;7.20;99.90
45066;DHT22;30830;53.704;10.004;2024-01-30T11:07:29;7.30;99.90
45066;DHT22;30830;53.704;10.004;2024-01-30T11:12:24;7.40;99.90
45066;DHT22;30830;53.704;10.004;2024-01-30T11:18:00;7.60;99.90
45066;DHT22;30830;53.704;10.004;2024-01-30T11:20:30;7.60;99.90
45066;DHT22;30830;53.704;10.004;2024-01-30T11:22:59;7.70;99.90
45066;DHT22;30830;53.704;10.004;2024-01-30T11:25:25;7.70;99.90
45066;DHT22;30830;53.704;10.004;2024-01-30T11:27:55;7.70;99.90
45066;DHT22;30830;53.704;10.004;2024-01-30T11:30:24;7.80;99.90
45066;DHT22;30830;53.704;10.004;2024-01-30T11:35:26;7.80;99.90
45066;DHT22;30830;53.704;10.004;2024-01-30T11:37:52;7.90;99.90
45066;DHT22;30830;53.704;10.004;2024-01-30T11:40:19;7.90;99.90
45066;DHT22;30830;53.704;10.004;2024-01-30T11:42:45;7.90;99.90
45066;DHT22;30830;53.704;10.004;2024-01-30T11:45:12;7.90;99.90
45066;DHT22;30830;53.704;10.004;2024-01-30T11:47:38;8.00;99.90
45066;DHT22;30830;53.704;10.004;2024-01-30T11:50:04;8.00;99.90
45066;DHT22;30830;53.704;10.004;2024-01-30T11:52:33;8.00;99.90
45066;DHT22;30830;53.704;10.004;2024-01-30T11:54:59;8.00;99.90
45066;DHT22;30830;53.704;10.004;2024-01-30T11:57:27;8.00;99.90
45066;DHT22;30830;53.704;10.004;2024-01-30T11:59:52;8.00;99.90
45066;DHT22;30830;53.704;10.004;2024-01-30T12:02:18;8.00;99.90
45066;DHT22;30830;53.704;10.004;2024-01-30T12:04:44;8.00;99.90
45066;DHT22;30830;53.704;10.004;2024-01-30T12:07:10;8.00;99.90
45066;DHT22;30830;53.704;10.004;2024-01-30T12:09:35;8.00;99.90
45066;DHT22;30830;53.704;10.004;2024-01-30T12:12:01;8.00;99.90
45066;DHT22;30830;53.704;10.004;2024-01-30T12:14:27;8.00;99.90
45066;DHT22;30830;53.704;10.004;2024-01-30T12:16:52;8.00;99.90
45066;DHT22;30830;53.704;10.004;2024-01-30T12:19:22;8.00;99.90
45066;DHT22;30830;53.704;10.004;2024-01-30T12:21:54;8.10;99.90
45066;DHT22;30830;53.704;10.004;2024-01-30T12:24:20;8.00;99.90
45066;DHT22;30830;53.704;10.004;2024-01-30T12:26:46;8.10;99.90
45066;DHT22;30830;53.704;10.004;2024-01-30T12:29:11;8.10;99.90
45066;DHT22;30830;53.704;10.004;2024-01-30T12:31:37;8.10;99.90
45066;DHT22;30830;53.704;10.004;2024-01-30T12:34:02;8.10;99.90
45066;DHT22;30830;53.704;10.004;2024-01-30T12:36:28;8.10;99.90
45066;DHT22;30830;53.704;10.004;2024-01-30T12:38:56;8.10;99.90
45066;DHT22;30830;53.704;10.004;2024-01-30T12:41:22;8.20;99.90
45066;DHT22;30830;53.704;10.004;2024-01-30T12:43:53;8.10;99.90
45066;DHT22;30830;53.704;10.004;2024-01-30T12:46:19;8.20;99.90
45066;DHT22;30830;53.704;10.004;2024-01-30T12:48:44;8.20;99.90
45066;DHT22;30830;53.704;10.004;2024-01-30T12:51:10;8.30;99.90
45066;DHT22;30830;53.704;10.004;2024-01-30T12:53:36;8.40;99.90
45066;DHT22;30830;53.704;10.004;2024-01-30T12:56:01;8.40;99.90
45066;DHT22;30830;53.704;10.004;2024-01-30T12:58:27;8.50;99.90
45066;DHT22;30830;53.704;10.004;2024-01-30T13:00:53;8.50;99.90
45066;DHT22;30830;53.704;10.004;2024-01-30T13:03:19;8.60;99.90
45066;DHT22;30830;53.704;10.004;2024-01-30T13:05:45;8.60;99.90
45066;DHT22;30830;53.704;10.004;2024-01-30T13:08:10;8.60;99.90
45066;DHT22;30830;53.704;10.004;2024-01-30T13:10:36;8.60;99.90
45066;DHT22;30830;53.704;10.004;2024-01-30T13:13:01;8.60;99.90
45066;DHT22;30830;53.704;10.004;2024-01-30T13:15:28;8.60;99.90
45066;DHT22;30830;53.704;10.004;2024-01-30T13:17:54;8.60;99.90
45066;DHT22;30830;53.704;10.004;2024-01-30T13:20:20;8.60;99.90
45066;DHT22;30830;53.704;10.004;2024-01-30T13:22:47;8.60;99.90
45066;DHT22;30830;53.704;10.004;2024-01-30T13:25:15;8.60;99.90
45066;DHT22;30830;53.704;10.004;2024-01-30T13:27:40;8.60;99.90
45066;DHT22;30830;53.704;10.004;2024-01-30T13:30:07;8.60;99.90
45066;DHT22;30830;53.704;10.004;2024-01-30T13:32:36;8.60;99.90
45066;DHT22;30830;53.704;10.004;2024-01-30T13:35:02;8.60;99.90
45066;DHT22;30830;53.704;10.004;2024-01-30T13:37:28;8.60;99.90
45066;DHT22;30830;53.704;10.004;2024-01-30T13:39:55;8.60;99.90
45066;DHT22;30830;53.704;10.004;2024-01-30T13:42:21;8.60;99.90
45066;DHT22;30830;53.704;10.004;2024-01-30T13:44:47;8.60;99.90
45066;DHT22;30830;53.704;10.004;2024-01-30T13:47:12;8.60;99.90
45066;DHT22;30830;53.704;10.004;2024-01-30T13:49:38;8.60;99.90
45066;DHT22;30830;53.704;10.004;2024-01-30T13:52:04;8.60;99.90
45066;DHT22;30830;53.704;10.004;2024-01-30T13:54:30;8.60;99.90
45066;DHT22;30830;53.704;10.004;2024-01-30T13:56:56;8.70;99.90
45066;DHT22;30830;53.704;10.004;2024-01-30T13:59:22;8.60;99.90
45066;DHT22;30830;53.704;10.004;2024-01-30T14:01:49;8.70;99.90
45066;DHT22;30830;53.704;10.004;2024-01-30T14:04:15;8.70;99.90
45066;DHT22;30830;53.704;10.004;2024-01-30T14:06:41;8.70;99.90
45066;DHT22;30830;53.704;10.004;2024-01-30T14:09:06;8.70;99.90
45066;DHT22;30830;53.704;10.004;2024-01-30T14:11:32;8.70;99.90
45066;DHT22;30830;53.704;10.004;2024-01-30T14:13:57;8.70;99.90
45066;DHT22;30830;53.704;10.004;2024-01-30T14:16:23;8.70;99.90
45066;DHT22;30830;53.704;10.004;2024-01-30T14:18:50;8.70;99.90
45066;DHT22;30830;53.704;10.004;2024-01-30T14:21:15;8.70;99.90
45066;DHT22;30830;53.704;10.004;2024-01-30T14:23:41;8.70;99.90
45066;DHT22;30830;53.704;10.004;2024-01-30T14:26:06;8.80;99.90
45066;DHT22;30830;53.704;10.004;2024-01-30T14:28:32;8.70;99.90
45066;DHT22;30830;53.704;10.004;2024-01-30T14:30:57;8.80;99.90
45066;DHT22;30830;53.704;10.004;2024-01-30T14:33:23;8.70;99.90
45066;DHT22;30830;53.704;10.004;2024-01-30T14:35:49;8.70;99.90
45066;DHT22;30830;53.704;10.004;2024-01-30T14:38:14;8.80;99.90
45066;DHT22;30830;53.704;10.004;2024-01-30T14:40:41;8.80;99.90
45066;DHT22;30830;53.704;10.004;2024-01-30T14:43:07;8.80;99.90
45066;DHT22;30830;53.704;10.004;2024-01-30T14:45:32;8.80;99.90
45066;DHT22;30830;53.704;10.004;2024-01-30T14:47:58;8.80;99.90
45066;DHT22;30830;53.704;10.004;2024-01-30T14:50:25;8.70;99.90
45066;DHT22;30830;53.704;10.004;2024-01-30T14:52:52;8.70;99.90
45066;DHT22;30830;53.704;10.004;2024-01-30T14:55:17;8.70;99.90
45066;DHT22;30830;53.704;10.004;2024-01-30T14:57:43;8.70;99.90
45066;DHT22;30830;53.704;10.004;2024-01-30T15:00:11;8.70;99.90
45066;DHT22;30830;53.704;10.004;2024-01-30T15:02:37;8.70;99.90
45066;DHT22;30830;53.704;10.004;2024-01-30T15:05:02;8.70;99.90
45066;DHT22;30830;53.704;10.004;2024-01-30T15:07:28;8.70;99.90
45066;DHT22;30830;53.704;10.004;2024-01-30T15:09:54;8.80;99.90
45066;DHT22;30830;53.704;10.004;2024-01-30T15:12:20;8.80;99.90
45066;DHT22;30830;53.704;10.004;2024-01-30T15:14:45;8.90;99.90
45066;DHT22;30830;53.704;10.004;2024-01-30T15:17:19;8.80;99.90
45066;DHT22;30830;53.704;10.004;2024-01-30T15:19:48;8.90;99.90
45066;DHT22;30830;53.704;10.004;2024-01-30T15:22:14;8.90;99.90
45066;DHT22;30830;53.704;10.004;2024-01-30T15:24:39;8.90;99.90
45066;DHT22;30830;53.704;10.004;2024-01-30T15:27:05;8.90;99.90
45066;DHT22;30830;53.704;10.004;2024-01-30T15:29:31;8.90;99.90
45066;DHT22;30830;53.704;10.004;2024-01-30T15:31:57;8.90;99.90